sensor_id;sensor_type;location;lat;lon;timestamp;pressure;altitude;pressure_sealevel;temperature;humidity
65013;BME280;51715;39.432;-77.518;2023-12-04T00:01:59;98657.24;;;16.66;46.15
65013;BME280;51715;39.432;-77.518;2023-12-04T00:04:27;98660.40;;;16.32;46.70
65013;BME280;51715;39.432;-77.518;2023-12-04T00:06:56;98669.35;;;15.57;48.95
65013;BME280;51715;39.432;-77.518;2023-12-04T00:09:24;98674.14;;;15.82;48.49
65013;BME280;51715;39.432;-77.518;2023-12-04T00:11:53;98681.77;;;14.41;52.30
65013;BME280;51715;39.432;-77.518;2023-12-04T00:14:21;98675.28;;;14.77;51.72
65013;BME280;51715;39.432;-77.518;2023-12-04T00:16:53;98667.48;;;14.85;51.70
65013;BME280;51715;39.432;-77.518;2023-12-04T00:19:22;98651.28;;;15.16;50.41
65013;BME280;51715;39.432;-77.518;2023-12-04T00:21:50;98653.39;;;15.83;49.19
65013;BME280;51715;39.432;-77.518;2023-12-04T00:24:18;98641.19;;;16.19;48.33
65013;BME280;51715;39.432;-77.518;2023-12-04T00:26:48;98641.50;;;16.33;47.59
65013;BME280;51715;39.432;-77.518;2023-12-04T00:29:16;98634.97;;;16.43;47.37
65013;BME280;51715;39.432;-77.518;2023-12-04T00:31:45;98631.59;;;15.62;48.62
65013;BME280;51715;39.432;-77.518;2023-12-04T00:34:14;98638.09;;;15.82;47.86
65013;BME280;51715;39.432;-77.518;2023-12-04T00:36:43;98649.50;;;15.62;48.31
65013;BME280;51715;39.432;-77.518;2023-12-04T00:39:11;98645.92;;;14.99;49.45
65013;BME280;51715;39.432;-77.518;2023-12-04T00:41:40;98639.93;;;15.66;48.36
65013;BME280;51715;39.432;-77.518;2023-12-04T00:44:08;98634.70;;;15.80;47.65
65013;BME280;51715;39.432;-77.518;2023-12-04T00:46:37;98648.08;;;15.42;47.99
65013;BME280;51715;39.432;-77.518;2023-12-04T00:49:06;98635.33;;;15.86;47.34
65013;BME280;51715;39.432;-77.518;2023-12-04T00:51:38;98632.62;;;15.76;46.62
65013;BME280;51715;39.432;-77.518;2023-12-04T00:54:06;98631.23;;;16.04;46.39
65013;BME280;51715;39.432;-77.518;2023-12-04T00:56:34;98645.07;;;15.96;46.01
65013;BME280;51715;39.432;-77.518;2023-12-04T00:59:03;98643.40;;;15.53;46.20
65013;BME280;51715;39.432;-77.518;2023-12-04T01:01:32;98639.58;;;14.93;47.59
65013;BME280;51715;39.432;-77.518;2023-12-04T01:04:01;98637.77;;;15.61;47.02
65013;BME280;51715;39.432;-77.518;2023-12-04T01:06:29;98645.78;;;15.23;47.10
65013;BME280;51715;39.432;-77.518;2023-12-04T01:08:57;98648.60;;;15.11;46.92
65013;BME280;51715;39.432;-77.518;2023-12-04T01:11:26;98660.89;;;14.97;46.48
65013;BME280;51715;39.432;-77.518;2023-12-04T01:13:55;98663.58;;;15.20;46.07
65013;BME280;51715;39.432;-77.518;2023-12-04T01:16:23;98661.61;;;15.10;45.77
65013;BME280;51715;39.432;-77.518;2023-12-04T01:18:52;98662.53;;;14.72;45.75
65013;BME280;51715;39.432;-77.518;2023-12-04T01:21:21;98663.43;;;14.96;45.67
65013;BME280;51715;39.432;-77.518;2023-12-04T01:23:50;98669.46;;;14.89;45.74
65013;BME280;51715;39.432;-77.518;2023-12-04T01:26:18;98661.25;;;15.05;45.65
65013;BME280;51715;39.432;-77.518;2023-12-04T01:28:48;98658.90;;;14.97;45.45
65013;BME280;51715;39.432;-77.518;2023-12-04T01:31:17;98662.95;;;14.72;45.34
65013;BME280;51715;39.432;-77.518;2023-12-04T01:33:47;98665.40;;;14.89;45.10
65013;BME280;51715;39.432;-77.518;2023-12-04T01:36:16;98652.40;;;14.82;44.96
65013;BME280;51715;39.432;-77.518;2023-12-04T01:38:45;98648.13;;;14.76;44.80
65013;BME280;51715;39.432;-77.518;2023-12-04T01:41:13;98640.87;;;14.28;45.10
65013;BME280;51715;39.432;-77.518;2023-12-04T01:43:42;98647.29;;;13.97;45.38
65013;BME280;51715;39.432;-77.518;2023-12-04T01:46:11;98641.57;;;13.84;45.65
65013;BME280;51715;39.432;-77.518;2023-12-04T01:48:42;98631.59;;;14.09;45.45
65013;BME280;51715;39.432;-77.518;2023-12-04T01:51:10;98625.58;;;13.64;45.13
65013;BME280;51715;39.432;-77.518;2023-12-04T01:53:40;98631.32;;;13.59;45.15
65013;BME280;51715;39.432;-77.518;2023-12-04T01:56:11;98636.03;;;13.81;45.09
65013;BME280;51715;39.432;-77.518;2023-12-04T01:58:40;98646.58;;;13.67;45.22
65013;BME280;51715;39.432;-77.518;2023-12-04T02:01:10;98648.07;;;13.59;45.30
65013;BME280;51715;39.432;-77.518;2023-12-04T02:03:41;98654.35;;;13.51;45.33
65013;BME280;51715;39.432;-77.518;2023-12-04T02:06:10;98646.28;;;13.38;45.91
65013;BME280;51715;39.432;-77.518;2023-12-04T02:08:41;98658.56;;;13.04;45.53
65013;BME280;51715;39.432;-77.518;2023-12-04T02:11:10;98665.71;;;12.80;46.41
65013;BME280;51715;39.432;-77.518;2023-12-04T02:13:38;98676.37;;;12.41;46.68
65013;BME280;51715;39.432;-77.518;2023-12-04T02:16:10;98672.31;;;12.65;47.13
65013;BME280;51715;39.432;-77.518;2023-12-04T02:18:41;98678.77;;;12.05;47.73
65013;BME280;51715;39.432;-77.518;2023-12-04T02:21:09;98678.71;;;12.06;47.72
65013;BME280;51715;39.432;-77.518;2023-12-04T02:23:37;98676.84;;;12.36;47.21
65013;BME280;51715;39.432;-77.518;2023-12-04T02:26:11;98677.02;;;12.39;46.99
65013;BME280;51715;39.432;-77.518;2023-12-04T02:28:43;98674.93;;;11.86;47.60
65013;BME280;51715;39.432;-77.518;2023-12-04T02:31:14;98684.24;;;11.93;47.17
65013;BME280;51715;39.432;-77.518;2023-12-04T02:33:46;98678.17;;;12.04;46.93
65013;BME280;51715;39.432;-77.518;2023-12-04T02:36:15;98678.08;;;11.95;47.15
65013;BME280;51715;39.432;-77.518;2023-12-04T02:38:44;98677.98;;;11.95;47.35
65013;BME280;51715;39.432;-77.518;2023-12-04T02:41:13;98685.22;;;11.94;47.13
65013;BME280;51715;39.432;-77.518;2023-12-04T02:43:42;98692.00;;;12.15;46.87
65013;BME280;51715;39.432;-77.518;2023-12-04T02:46:10;98695.49;;;12.24;46.84
65013;BME280;51715;39.432;-77.518;2023-12-04T02:48:39;98696.80;;;11.86;47.26
65013;BME280;51715;39.432;-77.518;2023-12-04T02:51:09;98696.45;;;11.97;46.72
65013;BME280;51715;39.432;-77.518;2023-12-04T02:53:38;98697.09;;;11.34;47.64
65013;BME280;51715;39.432;-77.518;2023-12-04T02:56:08;98710.33;;;10.86;48.69
65013;BME280;51715;39.432;-77.518;2023-12-04T02:58:37;98694.02;;;11.48;47.51
65013;BME280;51715;39.432;-77.518;2023-12-04T03:01:05;98700.07;;;10.42;47.83
65013;BME280;51715;39.432;-77.518;2023-12-04T03:03:34;98701.29;;;10.59;47.01
65013;BME280;51715;39.432;-77.518;2023-12-04T03:06:02;98708.87;;;11.15;45.60
65013;BME280;51715;39.432;-77.518;2023-12-04T03:08:30;98714.56;;;11.50;45.53
65013;BME280;51715;39.432;-77.518;2023-12-04T03:10:58;98720.20;;;12.00;44.74
65013;BME280;51715;39.432;-77.518;2023-12-04T03:13:27;98722.78;;;11.86;44.23
65013;BME280;51715;39.432;-77.518;2023-12-04T03:15:55;98725.56;;;12.69;43.62
65013;BME280;51715;39.432;-77.518;2023-12-04T03:18:23;98728.60;;;12.92;43.11
65013;BME280;51715;39.432;-77.518;2023-12-04T03:20:52;98726.68;;;12.44;42.88
65013;BME280;51715;39.432;-77.518;2023-12-04T03:23:20;98729.60;;;12.24;43.13
65013;BME280;51715;39.432;-77.518;2023-12-04T03:25:48;98725.04;;;12.39;42.54
65013;BME280;51715;39.432;-77.518;2023-12-04T03:28:17;98727.88;;;12.33;41.82
65013;BME280;51715;39.432;-77.518;2023-12-04T03:30:45;98732.98;;;12.98;41.60
65013;BME280;51715;39.432;-77.518;2023-12-04T03:33:13;98727.65;;;12.98;41.01
65013;BME280;51715;39.432;-77.518;2023-12-04T03:35:42;98729.02;;;12.70;40.30
65013;BME280;51715;39.432;-77.518;2023-12-04T03:38:11;98731.64;;;13.07;40.56
65013;BME280;51715;39.432;-77.518;2023-12-04T03:40:40;98735.90;;;12.63;40.31
65013;BME280;51715;39.432;-77.518;2023-12-04T03:43:09;98739.57;;;12.80;40.14
65013;BME280;51715;39.432;-77.518;2023-12-04T03:45:38;98745.60;;;12.44;39.33
65013;BME280;51715;39.432;-77.518;2023-12-04T03:48:06;98747.11;;;11.94;39.17
65013;BME280;51715;39.432;-77.518;2023-12-04T03:50:35;98757.20;;;11.36;39.86
65013;BME280;51715;39.432;-77.518;2023-12-04T03:53:03;98750.18;;;11.54;39.59
65013;BME280;51715;39.432;-77.518;2023-12-04T03:55:31;98757.25;;;11.62;39.11
65013;BME280;51715;39.432;-77.518;2023-12-04T03:58:01;98770.73;;;11.78;38.23
65013;BME280;51715;39.432;-77.518;2023-12-04T04:00:29;98771.46;;;10.25;38.87
65013;BME280;51715;39.432;-77.518;2023-12-04T04:02:57;98779.00;;;11.03;38.72
65013;BME280;51715;39.432;-77.518;2023-12-04T04:05:26;98787.11;;;11.34;38.05
65013;BME280;51715;39.432;-77.518;2023-12-04T04:07:54;98783.37;;;11.00;37.68
65013;BME280;51715;39.432;-77.518;2023-12-04T04:10:22;98795.09;;;11.93;36.63
65013;BME280;51715;39.432;-77.518;2023-12-04T04:12:50;98789.20;;;11.40;35.72
65013;BME280;51715;39.432;-77.518;2023-12-04T04:15:18;98802.95;;;10.91;36.88
65013;BME280;51715;39.432;-77.518;2023-12-04T04:17:46;98812.04;;;11.08;36.10
65013;BME280;51715;39.432;-77.518;2023-12-04T04:20:14;98804.70;;;10.34;36.10
65013;BME280;51715;39.432;-77.518;2023-12-04T04:22:43;98814.68;;;10.82;36.21
65013;BME280;51715;39.432;-77.518;2023-12-04T04:25:11;98818.55;;;11.53;34.91
65013;BME280;51715;39.432;-77.518;2023-12-04T04:27:40;98827.99;;;11.43;35.23
65013;BME280;51715;39.432;-77.518;2023-12-04T04:30:09;98842.55;;;11.89;35.24
65013;BME280;51715;39.432;-77.518;2023-12-04T04:32:37;98849.65;;;11.55;34.29
65013;BME280;51715;39.432;-77.518;2023-12-04T04:35:05;98851.71;;;11.22;34.47
65013;BME280;51715;39.432;-77.518;2023-12-04T04:37:34;98862.49;;;10.72;34.83
65013;BME280;51715;39.432;-77.518;2023-12-04T04:40:02;98856.12;;;11.02;34.60
65013;BME280;51715;39.432;-77.518;2023-12-04T04:42:30;98855.37;;;11.40;33.58
65013;BME280;51715;39.432;-77.518;2023-12-04T04:44:59;98865.12;;;11.21;33.55
65013;BME280;51715;39.432;-77.518;2023-12-04T04:47:27;98860.57;;;11.54;33.39
65013;BME280;51715;39.432;-77.518;2023-12-04T04:49:55;98856.96;;;10.80;34.68
65013;BME280;51715;39.432;-77.518;2023-12-04T04:52:23;98857.43;;;11.04;33.91
65013;BME280;51715;39.432;-77.518;2023-12-04T04:54:51;98857.48;;;10.02;33.44
65013;BME280;51715;39.432;-77.518;2023-12-04T04:57:19;98859.22;;;10.97;35.04
65013;BME280;51715;39.432;-77.518;2023-12-04T04:59:47;98859.73;;;10.93;34.78
65013;BME280;51715;39.432;-77.518;2023-12-04T05:03:59;98854.31;;;10.66;32.28
65013;BME280;51715;39.432;-77.518;2023-12-04T05:06:27;98844.48;;;9.88;34.49
65013;BME280;51715;39.432;-77.518;2023-12-04T05:08:56;98836.15;;;11.16;33.11
65013;BME280;51715;39.432;-77.518;2023-12-04T05:11:25;98831.95;;;11.65;31.97
65013;BME280;51715;39.432;-77.518;2023-12-04T05:13:53;98830.55;;;11.80;32.14
65013;BME280;51715;39.432;-77.518;2023-12-04T05:16:22;98827.42;;;11.49;32.94
65013;BME280;51715;39.432;-77.518;2023-12-04T05:18:50;98836.62;;;9.85;34.24
65013;BME280;51715;39.432;-77.518;2023-12-04T05:21:18;98832.00;;;10.63;34.04
65013;BME280;51715;39.432;-77.518;2023-12-04T05:23:46;98825.67;;;10.70;33.53
65013;BME280;51715;39.432;-77.518;2023-12-04T05:26:15;98823.20;;;10.29;33.56
65013;BME280;51715;39.432;-77.518;2023-12-04T05:28:43;98820.25;;;10.15;34.71
65013;BME280;51715;39.432;-77.518;2023-12-04T05:31:11;98813.45;;;11.27;34.31
65013;BME280;51715;39.432;-77.518;2023-12-04T05:33:38;98815.87;;;10.11;33.47
65013;BME280;51715;39.432;-77.518;2023-12-04T05:36:07;98816.25;;;8.72;35.62
65013;BME280;51715;39.432;-77.518;2023-12-04T05:38:35;98825.84;;;9.71;34.95
65013;BME280;51715;39.432;-77.518;2023-12-04T05:41:03;98820.65;;;10.41;33.87
65013;BME280;51715;39.432;-77.518;2023-12-04T05:43:31;98819.00;;;10.67;33.93
65013;BME280;51715;39.432;-77.518;2023-12-04T05:45:59;98818.11;;;10.97;33.15
65013;BME280;51715;39.432;-77.518;2023-12-04T05:48:27;98820.77;;;11.15;33.07
65013;BME280;51715;39.432;-77.518;2023-12-04T05:50:54;98820.69;;;11.25;33.31
65013;BME280;51715;39.432;-77.518;2023-12-04T05:53:22;98829.87;;;11.32;33.22
65013;BME280;51715;39.432;-77.518;2023-12-04T05:55:50;98830.59;;;11.10;33.43
65013;BME280;51715;39.432;-77.518;2023-12-04T05:58:17;98824.02;;;11.28;32.99
65013;BME280;51715;39.432;-77.518;2023-12-04T06:00:46;98818.57;;;10.97;33.79
65013;BME280;51715;39.432;-77.518;2023-12-04T06:03:14;98815.41;;;11.09;34.28
65013;BME280;51715;39.432;-77.518;2023-12-04T06:05:42;98824.93;;;10.98;33.95
65013;BME280;51715;39.432;-77.518;2023-12-04T06:08:10;98827.77;;;10.21;35.62
65013;BME280;51715;39.432;-77.518;2023-12-04T06:10:38;98822.28;;;10.08;35.35
65013;BME280;51715;39.432;-77.518;2023-12-04T06:13:06;98837.83;;;10.09;35.29
65013;BME280;51715;39.432;-77.518;2023-12-04T06:15:34;98843.21;;;9.65;35.68
65013;BME280;51715;39.432;-77.518;2023-12-04T06:18:02;98837.60;;;10.04;35.05
65013;BME280;51715;39.432;-77.518;2023-12-04T06:20:30;98848.39;;;9.73;34.08
65013;BME280;51715;39.432;-77.518;2023-12-04T06:22:58;98845.06;;;10.12;34.16
65013;BME280;51715;39.432;-77.518;2023-12-04T06:25:27;98844.07;;;10.18;35.14
65013;BME280;51715;39.432;-77.518;2023-12-04T06:27:56;98847.81;;;10.33;34.72
65013;BME280;51715;39.432;-77.518;2023-12-04T06:30:25;98847.82;;;9.86;34.05
65013;BME280;51715;39.432;-77.518;2023-12-04T06:32:54;98855.00;;;10.44;33.89
65013;BME280;51715;39.432;-77.518;2023-12-04T06:35:23;98862.48;;;10.27;33.22
65013;BME280;51715;39.432;-77.518;2023-12-04T06:37:54;98863.26;;;10.87;33.56
65013;BME280;51715;39.432;-77.518;2023-12-04T06:40:23;98862.91;;;10.58;33.33
65013;BME280;51715;39.432;-77.518;2023-12-04T06:42:51;98859.22;;;10.56;33.76
65013;BME280;51715;39.432;-77.518;2023-12-04T06:45:20;98868.58;;;10.89;33.56
65013;BME280;51715;39.432;-77.518;2023-12-04T06:47:50;98857.84;;;10.47;33.27
65013;BME280;51715;39.432;-77.518;2023-12-04T06:50:18;98863.47;;;10.71;33.87
65013;BME280;51715;39.432;-77.518;2023-12-04T06:52:47;98859.02;;;10.63;33.28
65013;BME280;51715;39.432;-77.518;2023-12-04T06:55:15;98864.14;;;10.85;33.59
65013;BME280;51715;39.432;-77.518;2023-12-04T06:57:43;98869.05;;;11.32;33.06
65013;BME280;51715;39.432;-77.518;2023-12-04T07:00:12;98875.96;;;11.36;32.56
65013;BME280;51715;39.432;-77.518;2023-12-04T07:02:41;98886.00;;;11.54;32.36
65013;BME280;51715;39.432;-77.518;2023-12-04T07:05:09;98893.08;;;11.36;32.72
65013;BME280;51715;39.432;-77.518;2023-12-04T07:07:38;98901.80;;;11.38;32.31
65013;BME280;51715;39.432;-77.518;2023-12-04T07:10:06;98903.10;;;11.52;32.43
65013;BME280;51715;39.432;-77.518;2023-12-04T07:12:35;98904.06;;;10.55;33.04
65013;BME280;51715;39.432;-77.518;2023-12-04T07:15:04;98899.86;;;10.85;32.95
65013;BME280;51715;39.432;-77.518;2023-12-04T07:17:32;98901.95;;;10.91;32.73
65013;BME280;51715;39.432;-77.518;2023-12-04T07:20:00;98903.73;;;11.12;33.13
65013;BME280;51715;39.432;-77.518;2023-12-04T07:22:28;98898.78;;;11.01;33.34
65013;BME280;51715;39.432;-77.518;2023-12-04T07:24:56;98887.80;;;10.80;33.50
65013;BME280;51715;39.432;-77.518;2023-12-04T07:27:25;98894.92;;;10.46;33.48
65013;BME280;51715;39.432;-77.518;2023-12-04T07:29:52;98899.32;;;10.56;33.60
65013;BME280;51715;39.432;-77.518;2023-12-04T07:32:20;98909.00;;;10.80;33.72
65013;BME280;51715;39.432;-77.518;2023-12-04T07:34:48;98914.05;;;10.82;34.29
65013;BME280;51715;39.432;-77.518;2023-12-04T07:37:15;98916.24;;;10.20;35.15
65013;BME280;51715;39.432;-77.518;2023-12-04T07:39:44;98919.52;;;10.10;35.48
65013;BME280;51715;39.432;-77.518;2023-12-04T07:42:12;98931.47;;;9.43;36.50
65013;BME280;51715;39.432;-77.518;2023-12-04T07:44:40;98930.79;;;8.95;36.98
65013;BME280;51715;39.432;-77.518;2023-12-04T07:47:08;98935.92;;;8.85;36.75
65013;BME280;51715;39.432;-77.518;2023-12-04T07:49:36;98936.97;;;8.78;36.93
65013;BME280;51715;39.432;-77.518;2023-12-04T07:52:05;98930.93;;;9.06;37.54
65013;BME280;51715;39.432;-77.518;2023-12-04T07:54:34;98923.01;;;9.38;37.04
65013;BME280;51715;39.432;-77.518;2023-12-04T07:57:02;98918.37;;;9.62;36.87
65013;BME280;51715;39.432;-77.518;2023-12-04T07:59:31;98911.92;;;9.07;36.93
65013;BME280;51715;39.432;-77.518;2023-12-04T08:01:58;98919.28;;;8.58;37.69
65013;BME280;51715;39.432;-77.518;2023-12-04T08:04:26;98924.50;;;8.85;37.01
65013;BME280;51715;39.432;-77.518;2023-12-04T08:06:54;98932.72;;;9.18;37.10
65013;BME280;51715;39.432;-77.518;2023-12-04T08:09:22;98925.03;;;8.80;37.26
65013;BME280;51715;39.432;-77.518;2023-12-04T08:11:50;98919.22;;;8.50;37.77
65013;BME280;51715;39.432;-77.518;2023-12-04T08:14:18;98925.64;;;8.48;38.38
65013;BME280;51715;39.432;-77.518;2023-12-04T08:16:46;98933.40;;;8.46;38.04
65013;BME280;51715;39.432;-77.518;2023-12-04T08:19:16;98934.06;;;8.76;37.57
65013;BME280;51715;39.432;-77.518;2023-12-04T08:21:45;98933.56;;;8.90;37.64
65013;BME280;51715;39.432;-77.518;2023-12-04T08:24:12;98936.71;;;8.83;37.45
65013;BME280;51715;39.432;-77.518;2023-12-04T08:26:40;98943.30;;;9.04;37.81
65013;BME280;51715;39.432;-77.518;2023-12-04T08:29:08;98944.26;;;8.91;38.07
65013;BME280;51715;39.432;-77.518;2023-12-04T08:31:36;98954.24;;;8.97;37.49
65013;BME280;51715;39.432;-77.518;2023-12-04T08:34:04;98956.68;;;8.89;37.95
65013;BME280;51715;39.432;-77.518;2023-12-04T08:36:32;98957.59;;;8.14;38.55
65013;BME280;51715;39.432;-77.518;2023-12-04T08:38:59;98958.47;;;8.25;39.18
65013;BME280;51715;39.432;-77.518;2023-12-04T08:41:27;98961.24;;;7.93;39.10
65013;BME280;51715;39.432;-77.518;2023-12-04T08:43:56;98955.13;;;8.09;38.84
65013;BME280;51715;39.432;-77.518;2023-12-04T08:46:24;98953.69;;;8.20;38.77
65013;BME280;51715;39.432;-77.518;2023-12-04T08:48:52;98956.72;;;8.44;38.88
65013;BME280;51715;39.432;-77.518;2023-12-04T08:51:20;98951.92;;;8.51;38.96
65013;BME280;51715;39.432;-77.518;2023-12-04T08:53:48;98944.92;;;7.89;39.51
65013;BME280;51715;39.432;-77.518;2023-12-04T08:56:17;98939.32;;;7.93;39.57
65013;BME280;51715;39.432;-77.518;2023-12-04T08:58:45;98933.62;;;7.92;39.61
65013;BME280;51715;39.432;-77.518;2023-12-04T09:01:13;98930.14;;;7.66;40.15
65013;BME280;51715;39.432;-77.518;2023-12-04T09:03:41;98928.95;;;7.93;39.87
65013;BME280;51715;39.432;-77.518;2023-12-04T09:06:09;98930.99;;;8.01;39.70
65013;BME280;51715;39.432;-77.518;2023-12-04T09:08:37;98928.47;;;7.57;40.15
65013;BME280;51715;39.432;-77.518;2023-12-04T09:11:06;98930.79;;;7.62;40.15
65013;BME280;51715;39.432;-77.518;2023-12-04T09:13:34;98934.28;;;7.58;40.16
65013;BME280;51715;39.432;-77.518;2023-12-04T09:16:03;98933.47;;;7.58;39.96
65013;BME280;51715;39.432;-77.518;2023-12-04T09:18:31;98933.50;;;7.65;40.19
65013;BME280;51715;39.432;-77.518;2023-12-04T09:20:58;98938.73;;;7.64;40.60
65013;BME280;51715;39.432;-77.518;2023-12-04T09:23:26;98937.87;;;7.43;40.57
65013;BME280;51715;39.432;-77.518;2023-12-04T09:25:54;98931.89;;;7.11;41.50
65013;BME280;51715;39.432;-77.518;2023-12-04T09:28:22;98926.30;;;7.25;41.46
65013;BME280;51715;39.432;-77.518;2023-12-04T09:30:50;98926.81;;;6.83;41.60
65013;BME280;51715;39.432;-77.518;2023-12-04T09:33:18;98925.77;;;6.99;41.28
65013;BME280;51715;39.432;-77.518;2023-12-04T09:35:46;98925.46;;;6.57;41.54
65013;BME280;51715;39.432;-77.518;2023-12-04T09:38:14;98929.04;;;6.28;42.93
65013;BME280;51715;39.432;-77.518;2023-12-04T09:40:42;98932.64;;;6.37;42.74
65013;BME280;51715;39.432;-77.518;2023-12-04T09:43:11;98930.54;;;6.60;41.99
65013;BME280;51715;39.432;-77.518;2023-12-04T09:45:40;98925.18;;;5.57;44.16
65013;BME280;51715;39.432;-77.518;2023-12-04T09:48:08;98921.99;;;6.10;43.16
65013;BME280;51715;39.432;-77.518;2023-12-04T09:50:36;98922.19;;;5.71;43.88
65013;BME280;51715;39.432;-77.518;2023-12-04T09:53:05;98924.55;;;6.30;43.50
65013;BME280;51715;39.432;-77.518;2023-12-04T09:55:33;98923.96;;;6.07;43.81
65013;BME280;51715;39.432;-77.518;2023-12-04T09:58:01;98927.93;;;5.89;43.76
65013;BME280;51715;39.432;-77.518;2023-12-04T10:00:32;98920.51;;;4.63;46.32
65013;BME280;51715;39.432;-77.518;2023-12-04T10:03:01;98920.00;;;4.82;45.69
65013;BME280;51715;39.432;-77.518;2023-12-04T10:05:29;98920.56;;;5.43;44.99
65013;BME280;51715;39.432;-77.518;2023-12-04T10:07:57;98912.67;;;5.02;45.65
65013;BME280;51715;39.432;-77.518;2023-12-04T10:10:26;98921.37;;;5.44;44.63
65013;BME280;51715;39.432;-77.518;2023-12-04T10:12:54;98913.65;;;6.01;43.84
65013;BME280;51715;39.432;-77.518;2023-12-04T10:15:23;98914.85;;;6.07;43.75
65013;BME280;51715;39.432;-77.518;2023-12-04T10:17:52;98916.83;;;5.89;43.73
65013;BME280;51715;39.432;-77.518;2023-12-04T10:20:20;98911.88;;;6.03;43.57
65013;BME280;51715;39.432;-77.518;2023-12-04T10:22:57;98904.23;;;5.87;43.51
65013;BME280;51715;39.432;-77.518;2023-12-04T10:25:28;98902.30;;;6.32;43.05
65013;BME280;51715;39.432;-77.518;2023-12-04T10:28:07;98903.03;;;6.20;42.57
65013;BME280;51715;39.432;-77.518;2023-12-04T10:30:35;98902.52;;;6.09;42.53
65013;BME280;51715;39.432;-77.518;2023-12-04T10:33:05;98909.95;;;5.65;43.27
65013;BME280;51715;39.432;-77.518;2023-12-04T10:35:35;98917.69;;;5.59;44.05
65013;BME280;51715;39.432;-77.518;2023-12-04T10:38:04;98917.61;;;5.77;43.67
65013;BME280;51715;39.432;-77.518;2023-12-04T10:40:34;98918.49;;;5.81;43.17
65013;BME280;51715;39.432;-77.518;2023-12-04T10:43:19;98925.53;;;6.06;42.80
65013;BME280;51715;39.432;-77.518;2023-12-04T10:45:50;98931.20;;;6.10;42.92
65013;BME280;51715;39.432;-77.518;2023-12-04T10:48:19;98935.13;;;6.12;42.72
65013;BME280;51715;39.432;-77.518;2023-12-04T10:50:48;98945.62;;;6.05;42.66
65013;BME280;51715;39.432;-77.518;2023-12-04T10:53:17;98951.16;;;5.93;42.74
65013;BME280;51715;39.432;-77.518;2023-12-04T10:55:45;98960.58;;;6.28;42.35
65013;BME280;51715;39.432;-77.518;2023-12-04T10:58:17;98968.54;;;6.15;42.27
65013;BME280;51715;39.432;-77.518;2023-12-04T11:00:47;98975.49;;;5.60;42.85
65013;BME280;51715;39.432;-77.518;2023-12-04T11:03:20;98973.71;;;5.96;42.42
65013;BME280;51715;39.432;-77.518;2023-12-04T11:05:53;98973.07;;;5.82;42.41
65013;BME280;51715;39.432;-77.518;2023-12-04T11:08:23;98980.22;;;6.39;42.17
65013;BME280;51715;39.432;-77.518;2023-12-04T11:10:58;98984.17;;;6.76;41.58
65013;BME280;51715;39.432;-77.518;2023-12-04T11:13:29;98985.11;;;6.79;41.37
65013;BME280;51715;39.432;-77.518;2023-12-04T11:16:02;98984.11;;;6.74;41.21
65013;BME280;51715;39.432;-77.518;2023-12-04T11:18:35;98991.06;;;6.57;41.05
65013;BME280;51715;39.432;-77.518;2023-12-04T11:21:07;98992.35;;;6.56;40.77
65013;BME280;51715;39.432;-77.518;2023-12-04T11:23:36;98992.92;;;6.63;41.09
65013;BME280;51715;39.432;-77.518;2023-12-04T11:26:05;98997.50;;;6.67;40.87
65013;BME280;51715;39.432;-77.518;2023-12-04T11:28:36;99001.10;;;6.35;41.20
65013;BME280;51715;39.432;-77.518;2023-12-04T11:31:06;99006.13;;;6.74;41.04
65013;BME280;51715;39.432;-77.518;2023-12-04T11:33:36;99005.97;;;6.72;40.96
65013;BME280;51715;39.432;-77.518;2023-12-04T11:36:08;99005.95;;;6.78;40.87
65013;BME280;51715;39.432;-77.518;2023-12-04T11:38:36;99000.55;;;6.38;41.06
65013;BME280;51715;39.432;-77.518;2023-12-04T11:41:15;99005.50;;;6.52;41.02
65013;BME280;51715;39.432;-77.518;2023-12-04T11:43:46;99011.75;;;6.27;40.53
65013;BME280;51715;39.432;-77.518;2023-12-04T11:46:18;99015.49;;;6.01;40.49
65013;BME280;51715;39.432;-77.518;2023-12-04T11:48:48;99017.32;;;5.99;40.59
65013;BME280;51715;39.432;-77.518;2023-12-04T11:51:46;99019.37;;;6.12;40.55
65013;BME280;51715;39.432;-77.518;2023-12-04T11:54:16;99014.23;;;5.85;40.73
65013;BME280;51715;39.432;-77.518;2023-12-04T11:56:57;99017.83;;;6.00;40.58
65013;BME280;51715;39.432;-77.518;2023-12-04T11:59:27;99017.73;;;6.31;40.39
65013;BME280;51715;39.432;-77.518;2023-12-04T12:01:56;99019.17;;;6.38;40.37
65013;BME280;51715;39.432;-77.518;2023-12-04T12:04:24;99017.54;;;6.58;40.55
65013;BME280;51715;39.432;-77.518;2023-12-04T12:06:53;99015.95;;;6.07;40.48
65013;BME280;51715;39.432;-77.518;2023-12-04T12:09:23;99005.31;;;5.85;40.57
65013;BME280;51715;39.432;-77.518;2023-12-04T12:11:51;99000.20;;;5.85;40.47
65013;BME280;51715;39.432;-77.518;2023-12-04T12:14:21;98997.61;;;5.91;40.38
65013;BME280;51715;39.432;-77.518;2023-12-04T12:16:49;99001.88;;;5.70;40.49
65013;BME280;51715;39.432;-77.518;2023-12-04T12:19:19;99014.29;;;5.54;40.78
65013;BME280;51715;39.432;-77.518;2023-12-04T12:21:48;99018.23;;;5.97;41.09
65013;BME280;51715;39.432;-77.518;2023-12-04T12:24:15;99014.63;;;5.55;42.38
65013;BME280;51715;39.432;-77.518;2023-12-04T12:26:43;99018.33;;;5.77;42.31
65013;BME280;51715;39.432;-77.518;2023-12-04T12:29:11;99024.75;;;5.58;42.12
65013;BME280;51715;39.432;-77.518;2023-12-04T12:31:39;99025.99;;;5.72;41.93
65013;BME280;51715;39.432;-77.518;2023-12-04T12:34:07;99021.82;;;6.18;41.80
65013;BME280;51715;39.432;-77.518;2023-12-04T12:36:35;99014.26;;;5.95;41.47
65013;BME280;51715;39.432;-77.518;2023-12-04T12:39:04;99013.09;;;6.09;41.56
65013;BME280;51715;39.432;-77.518;2023-12-04T12:41:32;99019.38;;;6.29;41.28
65013;BME280;51715;39.432;-77.518;2023-12-04T12:44:02;99022.03;;;6.28;41.06
65013;BME280;51715;39.432;-77.518;2023-12-04T12:46:30;99021.06;;;6.65;40.98
65013;BME280;51715;39.432;-77.518;2023-12-04T12:48:58;99025.52;;;6.68;40.88
65013;BME280;51715;39.432;-77.518;2023-12-04T12:51:26;99031.98;;;6.77;41.04
65013;BME280;51715;39.432;-77.518;2023-12-04T12:53:57;99036.35;;;7.24;40.85
65013;BME280;51715;39.432;-77.518;2023-12-04T12:56:26;99040.60;;;7.21;40.67